Time;durP1;ratioP1;P1;durP2;ratioP2;P2;SDS_P1;SDS_P2;PMS_P1;PMS_P2;Temp;Humidity;BMP_temperature;BMP_pressure;BME280_temperature;BME280_humidity;BME280_pressure;Samples;Min_cycle;Max_cycle;Signal;HPM_P1;HPM_P2
2023/08/12 05:18:45;;;;;;;;;;;;;;;;;;;;;
2023/08/12 05:42:30;;;;;;;;;;;19.60;69.90;;;19.22;62.89;96872.44;5931452;23;20266;-86
2023/08/12 05:56:41;;;;;;;;;;;20.10;68.40;;;19.69;61.69;96863.06;5995647;23;20067;-86
2023/08/12 05:59:38;;;;;;;;;;;20.30;68.10;;;19.76;61.66;96861.50;5973861;23;19922;-86
2023/08/12 06:02:21;;;;;;;;;;;20.40;67.80;;;19.80;61.34;96858.94;5995385;23;20376;-86
2023/08/12 06:05:17;;;;;;;;;;;20.40;67.60;;;19.86;61.23;96846.59;5974283;23;20070;-86
2023/08/12 06:08:09;;;;;;;;;;;20.50;67.50;;;19.90;61.16;96852.31;5997490;23;19938;-86
2023/08/12 06:10:46;;;;;;;;;;;20.50;67.20;;;19.97;61.16;96863.00;5961205;23;19922;-87
2023/08/12 06:13:54;;;;;;;;;;;;;;;;;;;;;
2023/08/12 06:16:49;;;;;;;;;;;;;;;;;;;;;
2023/08/12 06:19:24;;;;;;;;;;;20.60;66.80;;;20.07;60.88;96848.88;6078242;23;19925;-86
2023/08/12 06:22:06;;;;;;;;;;;20.70;66.90;;;20.12;60.84;96861.81;6060825;23;19921;-86
2023/08/12 06:24:45;;;;;;;;;;;20.70;66.90;;;20.14;60.69;96860.34;6094309;23;20260;-86
2023/08/12 06:27:16;;;;;;;;;;;20.80;66.80;;;20.18;60.70;96853.03;6060008;23;19921;-86
2023/08/12 06:30:00;;;;;;;;;;;20.80;66.70;;;20.20;60.59;96853.50;6060271;23;19928;-86
2023/08/12 06:32:41;;;;;;;;;;;20.80;66.60;;;20.24;60.61;96851.75;6083301;23;20117;-86
2023/08/12 06:35:38;;;;;;;;;;;;;;;;;;;;;
2023/08/12 06:38:14;;;;;;;;;;;20.90;66.60;;;20.30;60.37;96857.19;6093524;23;19928;-86
2023/08/12 06:40:53;;;;;;;;;;;;;;;;;;;;;
2023/08/12 06:43:26;;;;;;;;;;;20.90;66.30;;;20.26;60.31;96847.81;6083664;23;20337;-86
2023/08/12 06:45:58;;;;;;;;;;;20.90;66.30;;;20.24;60.54;96848.16;6083782;23;19937;-86
2023/08/12 06:48:30;;;;;;;;;;;20.90;66.40;;;20.23;60.34;96855.66;6108973;23;19925;-86
2023/08/12 06:51:10;;;;;;;;;;;20.90;66.60;;;20.24;60.50;96857.31;6060900;23;19921;-86
2023/08/12 06:53:43;;;;;;;;;;;20.90;66.50;;;20.26;60.38;96859.78;6084666;23;19921;-86
2023/08/12 06:56:12;;;;;;;;;;;20.90;66.40;;;20.32;60.26;96860.47;6083743;23;20548;-86
2023/08/12 06:58:40;;;;;;;;;;;20.90;66.40;;;20.34;60.13;96853.44;6059889;23;19921;-86
2023/08/12 07:01:10;;;;;;;;;;;20.90;66.40;;;20.37;60.07;96854.75;6059083;23;19928;-86
2023/08/12 07:03:43;;;;;;;;;;;21.00;66.20;;;20.40;59.99;96854.13;6093987;23;19928;-86
2023/08/12 07:06:14;;;;;;;;;;;21.00;66.00;;;20.40;59.78;96848.56;6059605;23;19920;-86
2023/08/12 07:08:45;;;;;;;;;;;21.00;66.00;;;20.42;60.01;96851.84;6083634;23;19921;-86
2023/08/12 07:11:16;;;;;;;;;;;21.00;65.90;;;20.46;59.64;96861.19;6091530;23;19921;-86
2023/08/12 07:13:46;;;;;;;;;;;21.00;65.80;;;20.47;59.75;96856.47;6091170;23;19928;-86
2023/08/12 07:16:18;;;;;;;;;;;21.00;65.70;;;20.45;59.75;96854.00;6137052;23;20336;-86
2023/08/12 07:18:47;;;;;;;;;;;21.10;65.80;;;20.47;59.84;96857.25;6137081;23;19928;-86
2023/08/12 07:21:15;;;;;;;;;;;21.10;65.70;;;20.48;59.78;96856.13;6087967;23;20248;-87
2023/08/12 07:23:44;;;;;;;;;;;21.10;65.60;;;20.49;59.54;96852.22;6112504;23;19928;-87
2023/08/12 07:26:14;;;;;;;;;;;21.10;65.60;;;20.50;59.43;96853.84;6138649;23;19927;-87
2023/08/12 07:28:42;;;;;;;;;;;21.10;65.40;;;20.53;59.26;96849.59;6088348;23;19921;-87
2023/08/12 07:31:13;;;;;;;;;;;21.10;65.40;;;20.53;59.50;96844.88;6088117;23;19928;-86
2023/08/12 07:33:46;;;;;;;;;;;21.10;65.40;;;20.55;59.22;96844.53;6112437;23;19920;-87
2023/08/12 07:36:17;;;;;;;;;;;21.10;65.40;;;20.58;58.71;96843.09;6148402;23;19928;-86
2023/08/12 07:38:48;;;;;;;;;;;21.10;64.60;;;20.57;59.08;96839.50;6112681;23;19944;-86
2023/08/12 07:41:18;;;;;;;;;;;21.20;65.10;;;20.60;59.24;96849.16;6087861;23;20359;-86
2023/08/12 07:43:47;;;;;;;;;;;21.20;65.10;;;20.61;59.00;96843.28;6112437;23;19921;-86
2023/08/12 07:46:15;;;;;;;;;;;21.20;64.90;;;20.62;58.96;96844.09;6113059;23;19921;-86
2023/08/12 07:48:47;;;;;;;;;;;21.20;64.70;;;20.61;58.82;96843.28;6088032;23;19921;-86
2023/08/12 07:51:19;;;;;;;;;;;21.20;64.80;;;20.65;58.89;96844.28;6088923;23;19928;-87
2023/08/12 07:53:54;;;;;;;;;;;21.20;64.80;;;20.66;58.88;96845.91;6112479;23;19928;-86
2023/08/12 07:56:25;;;;;;;;;;;21.20;64.80;;;20.68;59.03;96845.59;6112472;23;19921;-86
2023/08/12 07:58:59;;;;;;;;;;;21.30;64.70;;;20.71;58.75;96836.63;6088118;23;19921;-86
2023/08/12 08:01:35;;;;;;;;;;;21.30;64.80;;;20.75;58.75;96845.97;6089549;23;19921;-86
2023/08/12 08:04:09;;;;;;;;;;;21.30;64.60;;;20.77;58.61;96835.34;6112663;23;19927;-86
2023/08/12 08:06:38;;;;;;;;;;;21.30;64.50;;;20.76;58.55;96833.72;6122451;23;19928;-87
2023/08/12 08:09:17;;;;;;;;;;;21.30;64.40;;;20.77;57.33;96832.56;6111932;23;19928;-86
2023/08/12 08:11:54;;;;;;;;;;;21.30;62.90;;;20.78;57.88;96831.44;6111574;23;20354;-86
2023/08/12 08:14:36;;;;;;;;;;;21.30;63.60;;;20.81;57.13;96829.94;6073585;23;19932;-86
2023/08/12 08:17:07;;;;;;;;;;;21.30;62.80;;;20.82;57.34;96824.09;6118802;23;20237;-86
2023/08/12 08:19:36;;;;;;;;;;;21.30;62.90;;;20.83;57.08;96830.47;6059092;23;20260;-86
2023/08/12 08:22:05;;;;;;;;;;;21.40;62.70;;;20.85;57.36;96828.19;6082969;23;19932;-86
2023/08/12 08:24:33;;;;;;;;;;;21.40;62.90;;;20.85;57.20;96826.19;6083154;23;19921;-86
2023/08/12 08:27:13;;;;;;;;;;;21.40;62.80;;;20.82;57.33;96821.31;6059105;23;19921;-86
2023/08/12 08:29:41;;;;;;;;;;;21.40;62.80;;;20.84;57.60;96835.72;6093202;23;19921;-87
2023/08/12 08:32:14;;;;;;;;;;;21.40;63.20;;;20.82;57.65;96821.31;6059792;23;19921;-87
2023/08/12 08:34:44;;;;;;;;;;;21.40;63.20;;;20.81;57.80;96819.66;6084039;23;20344;-87
2023/08/12 08:37:13;;;;;;;;;;;21.40;63.10;;;20.81;57.34;96819.66;6082840;23;19921;-86
2023/08/12 08:39:44;;;;;;;;;;;21.40;62.90;;;20.80;57.45;96822.75;6108787;23;19923;-86
2023/08/12 08:42:13;;;;;;;;;;;21.40;63.10;;;20.78;57.78;96817.50;6082956;23;19921;-87
2023/08/12 08:44:42;;;;;;;;;;;21.40;63.30;;;20.76;57.61;96810.63;6059360;23;20338;-87
2023/08/12 08:47:11;;;;;;;;;;;21.40;63.30;;;20.74;58.02;96813.69;6059090;23;19924;-87
2023/08/12 08:49:39;;;;;;;;;;;21.30;63.60;;;20.72;58.00;96810.41;6082790;23;19944;-87
2023/08/12 08:52:09;;;;;;;;;;;21.30;63.50;;;20.71;58.05;96803.22;6058770;23;19928;-86
2023/08/12 08:54:42;;;;;;;;;;;21.30;63.70;;;20.68;58.27;96806.66;6059126;23;19921;-86
2023/08/12 08:57:13;;;;;;;;;;;21.30;63.70;;;20.65;58.30;96804.50;6059036;23;19921;-87
2023/08/12 08:59:44;;;;;;;;;;;21.30;63.90;;;20.66;58.41;96808.94;6083581;23;19921;-87
2023/08/12 09:02:17;;;;;;;;;;;21.30;64.00;;;20.65;58.52;96807.28;6081936;23;19920;-87
2023/08/12 09:04:48;;;;;;;;;;;21.30;64.10;;;20.64;58.40;96795.34;6058913;23;19927;-86
2023/08/12 09:07:18;;;;;;;;;;;21.30;63.90;;;20.63;58.38;96792.88;6082358;23;20256;-86
2023/08/12 09:09:47;;;;;;;;;;;21.30;63.90;;;20.64;58.24;96797.28;6058932;23;19921;-87
2023/08/12 09:12:21;;;;;;;;;;;21.30;63.90;;;20.63;58.39;96796.50;6108076;23;19932;-86
2023/08/12 09:14:49;;;;;;;;;;;21.30;63.90;;;20.63;58.37;96801.22;6107298;23;20355;-86
2023/08/12 09:17:20;;;;;;;;;;;21.30;63.80;;;20.64;57.93;96788.94;6058892;23;19921;-87
2023/08/12 09:23:00;;;;;;;;;;;21.30;63.90;;;20.59;58.22;96795.50;6059479;23;19929;-86
2023/08/12 09:25:31;;;;;;;;;;;21.20;63.70;;;20.57;58.24;96805.31;6108242;23;19944;-86
2023/08/12 09:28:04;;;;;;;;;;;21.20;63.60;;;20.53;58.35;96791.19;6083994;23;20241;-86
2023/08/12 09:30:36;;;;;;;;;;;21.20;63.80;;;20.53;58.23;96805.09;6093886;23;19937;-86
2023/08/12 09:33:07;;;;;;;;;;;21.20;63.80;;;20.48;58.08;96808.84;6109817;23;19932;-86
2023/08/12 09:35:47;;;;;;;;;;;21.10;63.30;;;20.48;58.40;96802.47;6084228;23;19921;-86
2023/08/12 09:38:30;;;;;;;;;;;21.10;63.90;;;20.43;58.33;96809.00;6095341;23;19921;-86
2023/08/12 09:41:16;;;;;;;;;;;21.10;64.00;;;20.46;58.33;96811.13;6083471;23;19921;-86
2023/08/12 09:43:49;;;;;;;;;;;21.10;64.00;;;20.46;58.48;96804.75;6083553;23;19936;-86
2023/08/12 09:46:17;;;;;;;;;;;21.10;64.80;;;20.46;58.12;96802.78;6083578;23;19921;-86
2023/08/12 09:48:52;;;;;;;;;;;21.10;63.80;;;20.45;58.16;96801.16;6083828;23;19921;-87
2023/08/12 09:51:23;;;;;;;;;;;21.10;63.80;;;20.44;58.13;96799.53;6083551;23;19921;-86
2023/08/12 09:54:02;;;;;;;;;;;21.10;63.80;;;20.39;58.31;96791.31;6059879;23;19944;-86
2023/08/12 09:56:32;;;;;;;;;;;21.00;63.80;;;20.42;58.20;96798.19;6083837;23;19928;-87
2023/08/12 09:59:00;;;;;;;;;;;21.00;63.70;;;20.36;58.25;96786.38;6082062;23;19928;-86
2023/08/12 10:01:32;;;;;;;;;;;21.00;63.70;;;20.36;58.38;96780.81;6115717;23;20268;-87
2023/08/12 10:04:01;;;;;;;;;;;21.00;63.90;;;20.35;58.42;96787.53;6060539;23;19982;-86
2023/08/12 10:06:31;;;;;;;;;;;21.00;64.00;;;20.31;58.25;96778.19;6084228;23;20359;-87
2023/08/12 10:09:01;;;;;;;;;;;21.00;63.90;;;20.32;58.34;96791.78;6082698;23;19921;-87
2023/08/12 10:11:29;;;;;;;;;;;21.00;63.90;;;20.30;58.57;96787.69;6059653;23;19929;-87
2023/08/12 10:14:00;;;;;;;;;;;21.00;64.00;;;20.32;58.19;96790.97;6059635;23;19922;-86
2023/08/12 10:16:29;;;;;;;;;;;21.00;64.00;;;20.31;58.52;96784.56;6109056;23;20260;-86
2023/08/12 10:19:01;;;;;;;;;;;21.00;63.90;;;20.32;58.43;96782.63;6059965;23;19921;-86
2023/08/12 10:21:31;;;;;;;;;;;21.00;64.00;;;20.32;58.52;96774.28;6059267;23;19943;-86
2023/08/12 10:24:01;;;;;;;;;;;21.00;64.00;;;20.32;58.53;96771.50;6059912;23;19928;-86
2023/08/12 10:26:32;;;;;;;;;;;21.00;64.00;;;20.33;58.35;96770.38;6084379;23;19921;-86
2023/08/12 10:29:00;;;;;;;;;;;21.00;64.10;;;20.32;58.70;96769.53;6036391;23;19921;-86
2023/08/12 10:31:31;;;;;;;;;;;21.00;64.10;;;20.31;58.63;96778.19;6059701;23;19921;-86
2023/08/12 10:34:00;;;;;;;;;;;21.00;64.20;;;20.28;58.59;96768.50;6082687;23;20265;-86
2023/08/12 10:36:34;;;;;;;;;;;21.00;64.30;;;20.28;58.67;96773.28;6060623;23;19921;-86
2023/08/12 10:39:17;;;;;;;;;;;21.00;64.20;;;20.28;58.62;96773.28;6061629;23;19920;-86
2023/08/12 10:41:57;;;;;;;;;;;20.90;64.40;;;20.26;58.81;96770.00;6059172;23;19928;-86
2023/08/12 10:44:27;;;;;;;;;;;21.00;64.40;;;20.27;58.84;96775.22;6106663;23;19921;-86
2023/08/12 10:46:56;;;;;;;;;;;20.90;64.40;;;20.26;58.78;96770.00;6059433;23;20341;-86
2023/08/12 10:49:44;;;;;;;;;;;20.90;64.30;;;20.27;58.88;96771.63;6061201;23;20356;-86
2023/08/12 10:52:30;;;;;;;;;;;20.90;64.40;;;20.27;58.83;96761.31;6087570;23;20260;-87
2023/08/12 10:55:23;;;;;;;;;;;21.00;64.50;;;20.28;58.91;96753.81;6109026;23;19927;-86
2023/08/12 10:57:54;;;;;;;;;;;20.90;64.50;;;20.26;58.84;96754.13;6083492;23;19921;-86
2023/08/12 11:00:27;;;;;;;;;;;20.90;64.50;;;20.28;59.04;96762.16;6083360;23;19944;-86
2023/08/12 11:02:56;;;;;;;;;;;21.00;64.50;;;20.28;58.92;96756.59;6081761;23;19921;-86
2023/08/12 11:05:27;;;;;;;;;;;20.90;64.60;;;20.29;58.70;96752.66;6058401;23;19928;-86
2023/08/12 11:08:03;;;;;;;;;;;20.90;64.60;;;20.28;59.08;96757.41;6061762;23;20221;-86
2023/08/12 11:10:36;;;;;;;;;;;20.90;64.60;;;20.26;59.10;96747.75;6093503;23;19921;-87
2023/08/12 11:13:07;;;;;;;;;;;20.90;64.60;;;20.28;58.88;96756.59;6082602;23;19958;-87
2023/08/12 11:15:38;;;;;;;;;;;21.00;64.70;;;20.26;59.03;96753.31;6036021;23;19921;-87
2023/08/12 11:18:16;;;;;;;;;;;20.90;64.70;;;20.28;59.12;96762.97;6093422;23;19924;-87
2023/08/12 11:20:44;;;;;;;;;;;20.90;64.70;;;20.27;59.06;96752.16;6058401;23;19925;-87
2023/08/12 11:23:14;;;;;;;;;;;20.90;64.60;;;20.28;58.91;96751.03;6082484;23;20256;-86
2023/08/12 11:25:49;;;;;;;;;;;20.90;64.40;;;20.28;58.78;96751.84;6093550;23;19928;-86
2023/08/12 11:28:25;;;;;;;;;;;20.90;64.50;;;20.27;58.89;96749.38;6059679;23;19928;-86
2023/08/12 11:30:53;;;;;;;;;;;20.90;64.40;;;20.29;58.82;96755.44;6116871;23;19921;-87
2023/08/12 11:33:30;;;;;;;;;;;21.00;64.60;;;20.27;58.92;96743.81;6070364;23;19921;-87
2023/08/12 11:35:58;;;;;;;;;;;20.90;64.40;;;20.27;58.89;96744.63;6059437;23;19921;-87
2023/08/12 11:38:27;;;;;;;;;;;20.90;64.50;;;20.27;59.09;96743.81;6059442;23;20358;-87
2023/08/12 11:40:57;;;;;;;;;;;20.90;64.60;;;20.25;59.08;96741.38;6082865;23;19928;-87
2023/08/12 11:43:30;;;;;;;;;;;20.90;64.70;;;20.26;58.99;96743.03;6106437;23;19921;-87
2023/08/12 11:46:00;;;;;;;;;;;20.90;64.80;;;20.24;58.89;96742.50;6118751;23;19921;-86
2023/08/12 11:48:36;;;;;;;;;;;20.90;64.70;;;20.26;59.30;96753.31;6107482;23;19925;-87
2023/08/12 11:51:04;;;;;;;;;;;20.90;64.80;;;20.23;59.19;96749.22;6059036;23;20249;-87
2023/08/12 11:53:37;;;;;;;;;;;20.90;64.90;;;20.22;58.98;96740.03;6059433;23;19928;-87
2023/08/12 11:56:09;;;;;;;;;;;20.90;64.90;;;20.21;59.23;96741.19;6083854;23;19970;-87
2023/08/12 11:58:43;;;;;;;;;;;20.90;64.80;;;20.23;59.03;96738.09;6108752;23;19928;-87
2023/08/12 12:01:20;;;;;;;;;;;20.90;64.90;;;20.22;59.04;96736.44;6059108;23;19921;-87
2023/08/12 12:03:54;;;;;;;;;;;20.90;64.90;;;20.25;58.98;96735.81;6059628;23;19928;-86
2023/08/12 12:06:44;;;;;;;;;;;20.90;64.80;;;20.24;59.06;96734.97;6059259;23;20278;-87
2023/08/12 12:09:20;;;;;;;;;;;20.90;64.80;;;20.27;59.08;96744.63;6064360;23;20340;-87
2023/08/12 12:11:57;;;;;;;;;;;20.90;64.80;;;20.28;59.09;96734.34;6059284;23;19928;-86
2023/08/12 12:14:37;;;;;;;;;;;20.90;65.60;;;20.28;58.91;96739.91;6089261;23;19921;-86
2023/08/12 12:17:13;;;;;;;;;;;20.90;64.80;;;20.24;59.37;96737.75;6059618;23;19921;-86
2023/08/12 12:19:45;;;;;;;;;;;20.90;64.80;;;20.24;59.23;96737.75;6059687;23;20363;-86
2023/08/12 12:22:18;;;;;;;;;;;20.90;64.90;;;20.22;59.13;96734.47;6082703;23;19925;-86
2023/08/12 12:24:47;;;;;;;;;;;20.90;64.90;;;20.23;59.30;96733.34;6118684;23;19921;-86
2023/08/12 12:27:53;;;;;;;;;;;20.90;65.00;;;20.22;59.39;96719.78;6083542;23;19921;-87
2023/08/12 12:30:28;;;;;;;;;;;20.90;65.10;;;20.27;59.16;96727.16;6072971;23;20332;-87
2023/08/12 12:33:06;;;;;;;;;;;20.90;65.10;;;20.28;59.14;96731.56;6058831;23;19921;-87
2023/08/12 12:38:50;;;;;;;;;;;20.90;64.90;;;20.28;59.08;96728.78;6060942;23;19921;-87
2023/08/12 12:41:48;;;;;;;;;;;21.00;64.80;;;20.28;59.17;96724.03;6082509;23;20256;-87
2023/08/12 12:48:08;;;;;;;;;;;20.90;64.80;;;20.27;59.11;96721.59;6059141;23;20272;-87
2023/08/12 12:50:54;;;;;;;;;;;20.90;64.90;;;20.24;59.34;96725.84;6085034;23;19921;-87
2023/08/12 12:54:33;;;;;;;;;;;;;;;;;;;;;
2023/08/12 12:57:36;;;;;;;;;;;20.90;65.00;;;20.22;59.47;96726.13;5958095;24;19924;-87
2023/08/12 13:00:11;;;;;;;;;;;20.90;65.10;;;20.22;59.26;96722.56;5968285;24;19922;-87
2023/08/12 13:02:40;;;;;;;;;;;20.90;65.00;;;20.21;59.20;96726.47;6065803;23;19928;-87
2023/08/12 13:05:12;;;;;;;;;;;20.90;65.10;;;20.21;59.37;96723.69;6058844;23;19921;-87
2023/08/12 13:07:42;;;;;;;;;;;20.90;65.10;;;20.22;59.17;96722.56;6092717;23;19944;-87
2023/08/12 13:10:17;;;;;;;;;;;20.90;65.10;;;20.22;59.48;96720.56;6058827;23;19928;-87
2023/08/12 13:12:56;;;;;;;;;;;20.90;65.20;;;20.23;59.12;96716.66;6109152;23;19944;-87
2023/08/12 13:15:26;;;;;;;;;;;20.90;65.10;;;20.22;59.40;96720.56;6085692;23;19921;-87
2023/08/12 13:18:04;;;;;;;;;;;20.90;65.00;;;20.23;59.51;96727.78;6135998;23;19925;-87
2023/08/12 13:20:47;;;;;;;;;;;20.90;65.10;;;20.21;59.39;96723.69;6087751;23;19921;-87
2023/08/12 13:23:16;;;;;;;;;;;20.90;65.10;;;20.22;59.40;96720.56;6087641;23;19936;-87
2023/08/12 13:25:54;;;;;;;;;;;20.90;65.10;;;20.22;59.61;96717.78;6111828;23;19920;-87
2023/08/12 13:28:27;;;;;;;;;;;20.90;65.20;;;20.22;59.31;96712.25;6137727;23;20382;-87
2023/08/12 13:31:05;;;;;;;;;;;20.90;65.20;;;20.22;59.43;96714.22;6110833;23;20363;-87
2023/08/12 13:33:59;;;;;;;;;;;;;;;;;;;;;
2023/08/12 13:36:44;;;;;;;;;;;20.80;65.10;;;20.19;59.70;96710.13;6087620;23;19921;-87
2023/08/12 13:39:20;;;;;;;;;;;20.80;65.20;;;20.19;59.56;96712.91;6089051;23;19921;-87
2023/08/12 13:41:49;;;;;;;;;;;20.90;65.40;;;20.18;59.50;96702.91;6111255;23;20225;-87
2023/08/12 13:44:22;;;;;;;;;;;20.80;65.20;;;20.18;59.67;96708.47;6136373;23;19920;-87
2023/08/12 13:46:56;;;;;;;;;;;20.80;65.20;;;20.20;59.47;96705.38;6110944;23;19921;-87
2023/08/12 13:49:33;;;;;;;;;;;20.90;65.40;;;20.20;59.60;96700.63;6137112;23;19921;-87
2023/08/12 13:55:52;;;;;;;;;;;20.90;65.30;;;20.22;59.48;96698.34;6113926;23;19921;-87
2023/08/12 13:58:22;;;;;;;;;;;20.90;65.20;;;20.22;59.69;96692.78;6087466;23;20362;-87
2023/08/12 14:00:56;;;;;;;;;;;20.90;65.20;;;20.23;59.36;96702.75;6121193;23;20328;-87
2023/08/12 14:03:39;;;;;;;;;;;20.90;65.20;;;20.26;59.46;96700.47;6087502;23;19928;-87
2023/08/12 14:06:24;;;;;;;;;;;;;;;;;;;;;
2023/08/12 14:09:05;;;;;;;;;;;20.90;65.20;;;20.27;59.42;96697.38;6113130;23;19921;-87
2023/08/12 14:11:45;;;;;;;;;;;20.90;65.10;;;20.28;59.55;96700.97;6144231;23;19920;-87
2023/08/12 14:14:16;;;;;;;;;;;20.90;65.20;;;20.27;59.40;96705.72;6118827;23;19944;-87
2023/08/12 14:16:47;;;;;;;;;;;20.90;65.20;;;20.28;59.54;96707.34;6089032;23;19924;-87
2023/08/12 14:19:18;;;;;;;;;;;20.90;65.20;;;20.25;59.23;96691.34;6112833;23;19944;-87
2023/08/12 14:22:08;;;;;;;;;;;20.90;65.10;;;20.26;59.41;96694.91;6091132;23;20241;-87
2023/08/12 14:24:42;;;;;;;;;;;20.90;65.10;;;20.26;59.34;96698.53;6088573;23;19920;-87
2023/08/12 14:27:17;;;;;;;;;;;20.90;65.10;;;20.27;59.50;96699.34;6138313;23;19921;-87
2023/08/12 14:29:50;;;;;;;;;;;20.90;65.20;;;20.27;59.50;96702.94;6089071;23;19924;-87
2023/08/12 14:32:19;;;;;;;;;;;20.90;65.20;;;20.24;59.53;96704.41;6088165;23;19944;-87
2023/08/12 14:35:03;;;;;;;;;;;20.90;65.20;;;20.25;59.69;96702.47;6089499;23;19921;-87
2023/08/12 14:38:03;;;;;;;;;;;20.90;65.30;;;20.22;59.67;96694.75;6113791;23;19925;-87
2023/08/12 14:40:34;;;;;;;;;;;20.90;65.40;;;20.21;59.76;96693.91;6112681;23;19920;-86
2023/08/12 14:43:09;;;;;;;;;;;20.90;65.40;;;20.22;59.56;96703.91;6112556;23;19927;-87
2023/08/12 14:45:40;;;;;;;;;;;20.90;65.40;;;20.20;59.90;96689.50;6088864;23;19928;-86
2023/08/12 14:48:19;;;;;;;;;;;20.90;65.40;;;20.22;59.79;96695.56;6113494;23;19928;-86
2023/08/12 14:53:52;;;;;;;;;;;20.90;65.60;;;20.19;59.69;96687.03;6099733;23;19928;-86
2023/08/12 14:56:34;;;;;;;;;;;20.80;65.50;;;20.18;59.81;96689.03;6090715;23;19921;-87
2023/08/12 14:59:05;;;;;;;;;;;20.80;65.50;;;20.20;59.60;96692.28;6112139;23;20363;-86
2023/08/12 15:01:34;;;;;;;;;;;20.80;65.50;;;20.19;59.68;96690.66;6112578;23;19927;-87
2023/08/12 15:04:16;;;;;;;;;;;20.80;65.50;;;20.18;59.73;96689.03;6089235;23;19927;-86
2023/08/12 15:06:44;;;;;;;;;;;20.80;65.50;;;20.18;60.04;96686.25;6088558;23;20359;-86
2023/08/12 15:09:13;;;;;;;;;;;20.80;65.60;;;20.16;59.69;96688.53;6112273;23;19920;-86
2023/08/12 15:11:45;;;;;;;;;;;20.80;65.60;;;20.15;60.03;96686.88;6112600;23;19927;-87
2023/08/12 15:14:26;;;;;;;;;;;20.80;65.60;;;20.18;59.97;96688.19;6113833;23;20255;-86
2023/08/12 15:16:56;;;;;;;;;;;20.80;65.60;;;20.18;59.89;96691.81;6112589;23;19920;-86
2023/08/12 15:19:31;;;;;;;;;;;20.80;65.60;;;20.18;59.79;96686.25;6112762;23;19921;-87
2023/08/12 15:22:13;;;;;;;;;;;20.80;65.60;;;20.19;59.82;96679.53;6112246;23;19928;-86
2023/08/12 15:24:45;;;;;;;;;;;20.80;65.60;;;20.18;59.92;96686.25;6088387;23;19921;-86
2023/08/12 15:27:21;;;;;;;;;;;20.80;65.50;;;20.21;59.63;96685.56;6088517;23;20359;-86
2023/08/12 15:29:53;;;;;;;;;;;20.80;65.40;;;20.20;59.81;96683.94;6089736;23;19920;-87
2023/08/12 15:32:37;;;;;;;;;;;20.90;65.50;;;20.23;59.77;96686.06;6112458;23;19921;-86
2023/08/12 15:35:09;;;;;;;;;;;20.80;65.40;;;20.21;59.81;96682.00;6112851;23;19928;-86
2023/08/12 15:37:42;;;;;;;;;;;20.90;65.50;;;20.20;59.58;96677.56;6136689;23;19920;-86
2023/08/12 15:40:19;;;;;;;;;;;20.90;65.50;;;20.19;59.82;96679.53;6088520;23;19947;-86
2023/08/12 15:43:07;;;;;;;;;;;20.90;65.50;;;20.18;59.73;96672.34;6088358;23;20429;-86
2023/08/12 15:45:39;;;;;;;;;;;20.90;65.50;;;20.22;59.56;96684.44;6112044;23;19928;-86
2023/08/12 15:48:20;;;;;;;;;;;20.90;65.40;;;20.19;59.63;96679.53;6090116;23;19921;-86
2023/08/12 15:50:54;;;;;;;;;;;20.90;65.50;;;20.21;59.55;96673.66;6111139;23;19920;-87
2023/08/12 15:53:36;;;;;;;;;;;20.90;65.50;;;20.21;59.62;96680.00;6088328;23;19920;-87
2023/08/12 15:56:12;;;;;;;;;;;20.80;65.40;;;20.20;59.79;96672.81;6088193;23;19951;-87
2023/08/12 15:58:52;;;;;;;;;;;20.80;65.40;;;20.20;59.93;96680.34;6090120;23;19920;-87
2023/08/12 16:01:25;;;;;;;;;;;20.90;65.50;;;20.21;59.73;96679.22;6112405;23;19928;-87
2023/08/12 16:04:00;;;;;;;;;;;20.80;65.40;;;20.19;59.73;96678.72;6112407;23;19920;-87
2023/08/12 16:06:37;;;;;;;;;;;20.80;65.40;;;20.19;59.78;96682.31;6088820;23;19925;-87
2023/08/12 16:09:06;;;;;;;;;;;20.80;65.40;;;20.16;59.83;96671.84;6088207;23;19920;-87
2023/08/12 16:11:51;;;;;;;;;;;20.80;65.50;;;20.16;59.70;96671.84;6112433;23;19943;-87
2023/08/12 16:14:39;;;;;;;;;;;20.80;65.50;;;20.16;59.71;96676.56;6112439;23;19921;-87
2023/08/12 16:17:10;;;;;;;;;;;20.80;65.50;;;20.17;59.65;96673.47;6112222;23;19921;-87
2023/08/12 16:19:52;;;;;;;;;;;20.80;65.50;;;20.17;59.75;96678.22;6088599;23;20340;-87
2023/08/12 16:22:31;;;;;;;;;;;20.80;65.60;;;20.16;59.68;96679.34;6112261;23;19920;-87
2023/08/12 16:25:10;;;;;;;;;;;20.80;65.60;;;20.13;59.73;96677.22;6088398;23;19937;-87
2023/08/12 16:27:42;;;;;;;;;;;20.80;65.60;;;20.14;59.67;96685.22;6088434;23;19921;-86
2023/08/12 16:30:14;;;;;;;;;;;20.80;65.70;;;20.13;59.84;96678.03;6087514;23;20347;-86
2023/08/12 16:32:42;;;;;;;;;;;20.80;65.60;;;20.13;59.73;96677.22;6064313;23;19920;-87
2023/08/12 16:35:15;;;;;;;;;;;20.80;65.70;;;20.13;59.98;96677.22;6108279;23;19921;-86
2023/08/12 16:37:48;;;;;;;;;;;20.80;65.70;;;20.11;59.97;96683.09;6112586;23;19924;-86
2023/08/12 16:40:30;;;;;;;;;;;20.80;65.80;;;20.12;59.90;96684.72;6089434;23;19921;-86
2023/08/12 16:43:05;;;;;;;;;;;20.70;65.80;;;20.11;59.97;96680.31;6111025;23;19924;-87
2023/08/12 16:46:22;;;;;;;;;;;20.70;65.90;;;20.08;59.94;96687.34;6084996;23;20328;-87
2023/08/12 16:52:38;;;;;;;;;;;20.70;65.90;;;20.06;60.00;96683.25;6135205;23;19928;-86
2023/08/12 16:55:42;;;;;;;;;;;20.70;65.80;;;20.04;59.63;96682.75;6019460;23;20054;-86
2023/08/12 16:58:38;;;;;;;;;;;;;;;;;;;;;
2023/08/12 17:01:48;;;;;;;;;;;20.70;65.30;;;20.06;59.36;96689.63;6112057;23;19928;-86
2023/08/12 17:08:18;;;;;;;;;;;;;;;;;;;;;
2023/08/12 17:11:20;;;;;;;;;;;20.70;65.10;;;20.04;59.40;96702.19;6088840;23;19921;-87
2023/08/12 17:14:09;;;;;;;;;;;;;;;;;;;;;
2023/08/12 17:16:48;;;;;;;;;;;20.60;65.00;;;20.00;59.67;96701.19;6088183;23;20284;-87
2023/08/12 17:19:24;;;;;;;;;;;20.60;65.40;;;19.97;60.17;96701.81;6089583;23;19928;-87
2023/08/12 17:22:09;;;;;;;;;;;20.60;66.00;;;19.93;60.57;96698.88;6111101;23;19921;-87
2023/08/12 17:24:52;;;;;;;;;;;20.50;66.50;;;19.90;60.64;96714.22;6136684;23;19921;-87
2023/08/12 17:27:32;;;;;;;;;;;20.50;66.60;;;19.89;60.80;96714.53;6089088;23;19928;-87
2023/08/12 17:33:57;;;;;;;;;;;20.40;67.00;;;19.82;61.08;96723.28;6136775;23;19921;-87
2023/08/12 17:36:54;;;;;;;;;;;20.40;67.20;;;19.76;61.12;96713.47;6137631;23;19925;-87
2023/08/12 17:40:22;;;;;;;;;;;20.40;67.40;;;19.77;61.38;96727.03;6117159;23;19957;-87
2023/08/12 17:46:27;;;;;;;;;;;20.30;67.40;;;19.70;61.48;96735.00;6093468;23;20340;-87
2023/08/12 17:49:35;;;;;;;;;;;20.30;67.50;;;19.66;61.54;96720.09;6113531;23;20256;-87
2023/08/12 17:52:51;;;;;;;;;;;20.30;67.60;;;19.65;61.42;96732.34;6123658;23;19927;-87
2023/08/12 17:55:52;;;;;;;;;;;;;;;;;;;;;
2023/08/12 18:01:58;;;;;;;;;;;;;;;;;;;;;
2023/08/12 18:05:10;;;;;;;;;;;;;;;;;;;;;
2023/08/12 18:08:04;;;;;;;;;;;20.20;67.60;;;19.56;61.44;96734.25;6090277;23;20370;-87
2023/08/12 18:11:29;;;;;;;;;;;20.20;67.50;;;19.53;61.32;96738.50;6117007;23;19928;-87
2023/08/12 18:14:08;;;;;;;;;;;20.20;67.50;;;19.52;61.39;96739.63;5973210;23;19933;-87
2023/08/12 18:16:44;;;;;;;;;;;20.20;67.40;;;19.53;61.45;96749.59;6016489;23;19920;-87
2023/08/12 18:19:22;;;;;;;;;;;20.20;67.40;;;19.51;61.33;96749.09;6089439;23;19921;-87
2023/08/12 18:22:10;;;;;;;;;;;20.20;67.30;;;19.50;61.60;96744.66;6088756;23;20267;-87
2023/08/12 18:24:41;;;;;;;;;;;20.20;67.30;;;19.51;61.23;96749.09;6113180;23;19928;-87
2023/08/12 18:27:18;;;;;;;;;;;20.20;67.20;;;19.49;61.32;96756.91;6112961;23;19928;-87
2023/08/12 18:29:49;;;;;;;;;;;20.20;67.20;;;19.48;61.34;96746.94;6112220;23;19928;-87
2023/08/12 18:32:19;;;;;;;;;;;20.20;67.10;;;19.47;61.09;96751.69;6112268;23;19920;-87
2023/08/12 18:34:47;;;;;;;;;;;20.20;67.10;;;19.46;61.25;96751.97;6135520;23;19921;-87
2023/08/12 18:37:20;;;;;;;;;;;20.10;67.00;;;19.42;60.90;96749.00;6088879;23;19943;-86
2023/08/12 18:39:48;;;;;;;;;;;20.10;67.10;;;19.43;60.88;96749.81;6112922;23;19947;-87
2023/08/12 18:42:18;;;;;;;;;;;20.10;67.10;;;19.40;61.27;96753.25;6111886;23;19928;-87
2023/08/12 18:45:05;;;;;;;;;;;20.10;67.10;;;19.39;61.02;96755.19;6113023;23;19924;-87